To NAV CANADA Home Page Login to a new session Search on AWWS site Disclaimer Vers la page française équivalente Tips FAQ What's new on the site To the Forecasts and Observations / NOTAM section To "File a Flight Plan" website Publications and other links Update of the User's profile FIC Telephone Numbers My Weather Data Folder Route Weather Data Regional Weather Data Local Weather Data To the Forecasts and Observations / NOTAM section
Request Generated 11/13/2018 at 18:04:21 UTC . Weather information available at that time is displayed.

METAR/TAF

ST. JOHN'S INTL/NL    

METAR CYYT 131800Z 26015G21KT 15SM FEW025 03/M03 A3009 RMK SC2 SLP197=
METAR CYYT 131700Z 29014G24KT 15SM FEW025 03/M03 A3009 RMK SC2 SLP198=
METAR CYYT 131600Z 32016KT 15SM FEW024 FEW240 03/M03 A3007 RMK CU1CI1 SLP191=

TAF CYYT 131739Z 1318/1418 29015G25KT P6SM FEW020 TEMPO 1318/1321
BKN020
FM132100 29010G20KT P6SM BKN030 TEMPO 1321/1402 BKN020
FM140200 23008KT P6SM BKN030 OVC140
FM140700 19010KT 1SM -SN OVC015
FM140900 15015G25KT 2SM -SNRA BR BKN005 OVC020
FM141000 15020G30KT 1SM RA BR OVC003
BECMG 1410/1412 16035G45KT
FM141400 24030G40KT 6SM -DZ BR BKN006 OVC010
FM141600 24035G50KT P6SM BKN020 OVC030
RMK NXT FCST BY 140000Z=
Your time UTC time
Weather data provided by Environment Canada and NAV CANADA